createdAt,value
2022-12-09T00:01:18.444Z,35.90
2022-12-09T00:03:45.065Z,35.90
2022-12-09T00:06:11.909Z,35.90
2022-12-09T00:08:38.525Z,35.90
2022-12-09T00:11:05.119Z,35.70
2022-12-09T00:13:31.645Z,35.30
2022-12-09T00:15:58.247Z,35.70
2022-12-09T00:18:24.743Z,35.20
2022-12-09T00:20:51.317Z,35.70
2022-12-09T00:23:17.836Z,35.70
2022-12-09T00:25:44.564Z,35.80
2022-12-09T00:28:11.022Z,35.70
2022-12-09T00:30:37.776Z,35.80
2022-12-09T00:33:04.333Z,35.00
2022-12-09T00:35:30.979Z,35.70
2022-12-09T00:37:57.653Z,35.60
2022-12-09T00:40:24.129Z,35.70
2022-12-09T00:42:50.606Z,35.60
2022-12-09T00:45:17.052Z,35.50
2022-12-09T00:47:43.883Z,35.80
2022-12-09T00:50:10.871Z,35.70
2022-12-09T00:52:37.699Z,34.90
2022-12-09T00:55:04.369Z,35.40
2022-12-09T00:57:31.167Z,34.90
2022-12-09T00:59:57.701Z,35.40
2022-12-09T01:02:24.471Z,35.40
2022-12-09T01:04:51.163Z,35.40
2022-12-09T01:07:17.843Z,35.40
2022-12-09T01:09:44.343Z,34.80
2022-12-09T01:12:10.814Z,34.80
2022-12-09T01:14:37.296Z,35.40
2022-12-09T01:17:03.970Z,35.20
2022-12-09T01:19:30.804Z,35.10
2022-12-09T01:21:57.623Z,35.50
2022-12-09T01:24:24.467Z,35.10
2022-12-09T01:26:51.250Z,35.60
2022-12-09T01:29:17.696Z,35.30
2022-12-09T01:31:44.439Z,35.80
2022-12-09T01:34:11.322Z,35.60
2022-12-09T01:36:37.851Z,35.60
2022-12-09T01:39:04.314Z,35.10
2022-12-09T01:41:30.819Z,35.70
2022-12-09T01:43:57.349Z,35.20
2022-12-09T01:46:23.898Z,35.60
2022-12-09T01:48:50.501Z,35.60
2022-12-09T01:51:17.009Z,35.60
2022-12-09T01:53:43.510Z,34.90
2022-12-09T01:56:10.093Z,35.50
2022-12-09T01:58:36.819Z,34.80
2022-12-09T02:01:03.364Z,35.20
2022-12-09T02:03:30.104Z,35.20
2022-12-09T02:05:56.754Z,34.50
2022-12-09T02:08:23.319Z,35.10
2022-12-09T02:10:49.997Z,35.10
2022-12-09T02:13:16.640Z,34.50
2022-12-09T02:15:43.528Z,35.10
2022-12-09T02:18:10.013Z,34.50
2022-12-09T02:20:36.676Z,35.20
2022-12-09T02:23:03.145Z,35.00
2022-12-09T02:25:29.652Z,34.40
2022-12-09T02:27:56.181Z,35.00
2022-12-09T02:30:22.696Z,35.10
2022-12-09T02:32:49.341Z,35.10
2022-12-09T02:35:16.154Z,34.50
2022-12-09T02:37:42.651Z,35.10
2022-12-09T02:40:09.640Z,35.10
2022-12-09T02:42:36.242Z,34.30
2022-12-09T02:45:03.076Z,34.80
2022-12-09T02:47:29.892Z,34.30
2022-12-09T02:49:58.364Z,35.00
2022-12-09T02:52:24.896Z,34.30
2022-12-09T02:54:51.409Z,35.00
2022-12-09T02:57:17.883Z,35.00
2022-12-09T02:59:44.437Z,35.10
2022-12-09T03:02:11.096Z,34.20
2022-12-09T03:04:37.761Z,34.70
2022-12-09T03:07:04.573Z,34.70
2022-12-09T03:09:31.478Z,34.70
2022-12-09T03:11:58.056Z,34.30
2022-12-09T03:14:24.782Z,34.70
2022-12-09T03:16:51.387Z,34.60
2022-12-09T03:19:18.049Z,34.70
2022-12-09T03:21:44.814Z,34.70
2022-12-09T03:24:11.522Z,34.10
2022-12-09T03:26:38.335Z,34.70
2022-12-09T03:29:04.889Z,34.70
2022-12-09T03:31:31.675Z,35.40
2022-12-09T03:33:58.532Z,34.70
2022-12-09T03:36:25.055Z,34.30
2022-12-09T03:38:51.504Z,34.70
2022-12-09T03:41:17.939Z,34.80
2022-12-09T03:43:44.424Z,34.70
2022-12-09T03:46:10.982Z,34.60
2022-12-09T03:48:37.840Z,34.10
2022-12-09T03:51:04.317Z,34.20
2022-12-09T03:53:30.846Z,34.00
2022-12-09T03:55:57.637Z,34.50
2022-12-09T03:58:24.188Z,34.40
2022-12-09T04:00:51.135Z,34.50
2022-12-09T04:03:17.862Z,34.60
2022-12-09T04:05:44.556Z,34.70
2022-12-09T04:08:11.437Z,34.60
2022-12-09T04:10:38.080Z,34.60
2022-12-09T04:13:04.637Z,34.00
2022-12-09T04:15:31.136Z,34.50
2022-12-09T04:20:25.033Z,34.10
2022-12-09T04:22:51.675Z,34.50
2022-12-09T04:25:19.399Z,34.50
2022-12-09T04:27:46.157Z,34.50
2022-12-09T04:30:13.415Z,34.50
2022-12-09T04:32:40.256Z,33.90
2022-12-09T04:35:06.728Z,34.40
2022-12-09T04:37:33.345Z,34.20
2022-12-09T04:40:00.266Z,34.50
2022-12-09T04:42:27.141Z,33.90
2022-12-09T04:44:53.817Z,34.00
2022-12-09T04:47:20.400Z,34.50
2022-12-09T04:49:47.269Z,34.50
2022-12-09T04:52:13.731Z,33.90
2022-12-09T04:54:40.173Z,34.40
2022-12-09T04:57:06.665Z,34.50
2022-12-09T04:59:33.170Z,34.40
2022-12-09T05:02:00.110Z,34.40
2022-12-09T05:04:27.142Z,33.70
2022-12-09T05:06:54.188Z,34.30
2022-12-09T05:09:21.117Z,34.20
2022-12-09T05:11:47.976Z,33.70
2022-12-09T05:14:14.809Z,34.20
2022-12-09T05:16:41.586Z,33.80
2022-12-09T05:19:08.658Z,34.40
2022-12-09T05:21:36.301Z,34.50
2022-12-09T05:24:03.112Z,34.00
2022-12-09T05:26:30.059Z,34.70
2022-12-09T05:28:56.708Z,34.50
2022-12-09T05:31:23.673Z,34.90
2022-12-09T05:33:50.467Z,35.00
2022-12-09T05:36:17.122Z,35.10
2022-12-09T05:38:43.777Z,33.80
2022-12-09T05:41:10.492Z,34.70
2022-12-09T05:43:37.076Z,34.40
2022-12-09T05:46:04.337Z,34.50
2022-12-09T05:48:31.112Z,34.50
2022-12-09T05:50:57.771Z,34.70
2022-12-09T05:53:24.318Z,34.00
2022-12-09T05:55:51.215Z,34.40
2022-12-09T05:58:17.846Z,34.40
2022-12-09T06:00:44.337Z,34.40
2022-12-09T06:03:11.259Z,34.40
2022-12-09T06:05:38.196Z,34.50
2022-12-09T06:08:07.137Z,34.40
2022-12-09T06:10:34.584Z,33.90
2022-12-09T06:13:01.345Z,33.90
2022-12-09T06:15:33.131Z,34.40
2022-12-09T06:18:00.459Z,34.50
2022-12-09T06:20:27.344Z,34.50
2022-12-09T06:22:54.129Z,33.90
2022-12-09T06:25:21.005Z,34.50
2022-12-09T06:27:47.982Z,35.30
2022-12-09T06:30:14.920Z,34.60
2022-12-09T06:32:41.614Z,34.30
2022-12-09T06:35:08.754Z,34.80
2022-12-09T06:37:36.147Z,34.80
2022-12-09T06:40:02.681Z,34.90
2022-12-09T06:42:29.537Z,35.00
2022-12-09T06:44:56.361Z,35.20
2022-12-09T06:47:22.979Z,35.30
2022-12-09T06:49:50.193Z,35.30
2022-12-09T06:52:17.178Z,35.00
2022-12-09T06:54:43.720Z,35.40
2022-12-09T06:57:10.358Z,35.40
2022-12-09T06:59:36.985Z,35.30
2022-12-09T07:02:06.631Z,34.70
2022-12-09T07:04:34.158Z,35.10
2022-12-09T07:07:00.908Z,35.10
2022-12-09T07:09:27.751Z,35.10
2022-12-09T07:11:54.313Z,35.10
2022-12-09T07:14:20.911Z,34.40
2022-12-09T07:16:47.991Z,34.90
2022-12-09T07:19:14.903Z,35.10
2022-12-09T07:21:41.784Z,35.10
2022-12-09T07:24:08.379Z,35.00
2022-12-09T07:26:35.209Z,35.00
2022-12-09T07:29:02.300Z,35.00
2022-12-09T07:31:29.358Z,34.70
2022-12-09T07:33:56.480Z,35.20
2022-12-09T07:36:25.412Z,35.30
2022-12-09T07:38:52.686Z,35.20
2022-12-09T07:41:19.547Z,34.90
2022-12-09T07:43:46.284Z,35.40
2022-12-09T07:46:13.049Z,35.50
2022-12-09T07:48:40.036Z,35.40
2022-12-09T07:51:06.707Z,35.10
2022-12-09T07:53:33.351Z,34.70
2022-12-09T07:56:00.332Z,35.00
2022-12-09T07:58:26.991Z,35.00
2022-12-09T08:00:53.978Z,35.00
2022-12-09T08:03:20.785Z,34.50
2022-12-09T08:05:47.812Z,35.00
2022-12-09T08:08:14.769Z,35.00
2022-12-09T08:10:41.586Z,34.90
2022-12-09T08:13:08.515Z,34.30
2022-12-09T08:15:35.229Z,34.80
2022-12-09T08:18:01.805Z,34.80
2022-12-09T08:20:29.541Z,34.90
2022-12-09T08:22:57.120Z,34.30
2022-12-09T08:25:23.762Z,34.60
2022-12-09T08:27:50.565Z,34.90
2022-12-09T08:30:17.593Z,34.70
2022-12-09T08:32:44.858Z,34.00
2022-12-09T08:35:11.868Z,34.60
2022-12-09T08:37:38.782Z,33.90
2022-12-09T08:40:06.057Z,34.60
2022-12-09T08:42:33.449Z,34.60
2022-12-09T08:45:02.337Z,34.60
2022-12-09T08:47:29.867Z,34.60
2022-12-09T08:49:57.374Z,34.70
2022-12-09T08:52:24.037Z,34.70
2022-12-09T08:54:50.599Z,34.60
2022-12-09T08:57:17.357Z,34.60
2022-12-09T08:59:45.460Z,34.60
2022-12-09T09:02:12.725Z,34.10
2022-12-09T09:04:40.092Z,34.60
2022-12-09T09:07:07.343Z,34.50
2022-12-09T09:09:34.174Z,34.70
2022-12-09T09:12:00.674Z,34.50
2022-12-09T09:14:27.250Z,34.50
2022-12-09T09:16:56.024Z,35.10
2022-12-09T09:19:22.818Z,35.30
2022-12-09T09:21:49.986Z,35.40
2022-12-09T09:24:16.819Z,35.90
2022-12-09T09:26:43.508Z,36.40
2022-12-09T09:29:10.517Z,36.10
2022-12-09T09:31:37.446Z,35.50
2022-12-09T09:34:04.138Z,35.40
2022-12-09T09:36:30.933Z,36.00
2022-12-09T09:38:57.594Z,35.80
2022-12-09T09:41:24.109Z,35.10
2022-12-09T09:43:50.637Z,35.00
2022-12-09T09:46:17.528Z,34.50
2022-12-09T09:48:44.153Z,35.40
2022-12-09T09:51:11.191Z,35.30
2022-12-09T09:53:37.814Z,34.70
2022-12-09T09:56:07.162Z,35.30
2022-12-09T09:58:34.057Z,35.10
2022-12-09T10:01:00.901Z,35.10
2022-12-09T10:03:28.100Z,35.10
2022-12-09T10:05:55.238Z,35.10
2022-12-09T10:08:22.655Z,34.40
2022-12-09T10:10:49.642Z,34.90
2022-12-09T10:13:18.522Z,34.40
2022-12-09T10:15:45.951Z,35.00
2022-12-09T10:18:12.938Z,35.00
2022-12-09T10:20:39.986Z,34.40
2022-12-09T10:23:06.852Z,34.80
2022-12-09T10:25:33.750Z,34.20
2022-12-09T10:28:00.386Z,34.30
2022-12-09T10:30:33.469Z,34.80
2022-12-09T10:33:05.640Z,34.70
2022-12-09T10:35:32.634Z,34.20
2022-12-09T10:37:59.540Z,34.10
2022-12-09T10:40:26.361Z,34.70
2022-12-09T10:42:53.001Z,34.20
2022-12-09T10:45:19.647Z,34.80
2022-12-09T10:47:46.428Z,34.70
2022-12-09T10:50:13.683Z,34.20
2022-12-09T10:52:40.560Z,34.20
2022-12-09T10:55:07.380Z,34.10
2022-12-09T10:57:34.032Z,34.60
2022-12-09T11:00:00.939Z,34.60
2022-12-09T11:02:27.854Z,34.60
2022-12-09T11:04:54.745Z,34.70
2022-12-09T11:07:21.832Z,34.70
2022-12-09T11:09:49.007Z,34.80
2022-12-09T11:12:15.978Z,34.40
2022-12-09T11:14:42.756Z,34.80
2022-12-09T11:17:09.649Z,34.20
2022-12-09T11:19:36.467Z,34.70
2022-12-09T11:22:03.460Z,34.20
2022-12-09T11:24:30.977Z,34.00
2022-12-09T11:26:58.077Z,34.20
2022-12-09T11:29:24.828Z,34.60
2022-12-09T11:31:51.573Z,34.60
2022-12-09T11:34:18.363Z,34.10
2022-12-09T11:36:45.385Z,34.60
2022-12-09T11:39:11.977Z,34.50
2022-12-09T11:41:38.439Z,34.50
2022-12-09T11:44:04.886Z,34.50
2022-12-09T11:46:31.342Z,34.10
2022-12-09T11:48:57.835Z,34.50
2022-12-09T11:51:24.296Z,34.60
2022-12-09T11:53:52.172Z,33.70
2022-12-09T11:56:18.607Z,34.60
2022-12-09T11:58:45.043Z,35.30
2022-12-09T12:03:38.536Z,34.00
2022-12-09T12:06:04.989Z,34.10
2022-12-09T12:08:31.658Z,34.10
2022-12-09T12:10:58.178Z,34.50
2022-12-09T12:13:24.691Z,33.90
2022-12-09T12:15:51.177Z,34.30
2022-12-09T12:18:17.670Z,34.20
2022-12-09T12:20:44.113Z,34.60
2022-12-09T12:23:10.590Z,34.30
2022-12-09T12:25:37.077Z,34.60
2022-12-09T12:28:03.534Z,34.80
2022-12-09T12:30:29.974Z,34.70
2022-12-09T12:35:42.899Z,35.30
2022-12-09T12:38:09.327Z,35.20
2022-12-09T12:40:35.811Z,35.30
2022-12-09T12:43:02.306Z,34.50
2022-12-09T12:45:28.793Z,35.10
2022-12-09T12:47:55.391Z,34.80
2022-12-09T12:50:21.938Z,35.00
2022-12-09T12:52:55.987Z,34.30
2022-12-09T12:55:22.789Z,34.40
2022-12-09T12:57:49.263Z,34.80
2022-12-09T13:00:15.739Z,34.80
2022-12-09T13:02:42.262Z,34.30
2022-12-09T13:05:08.781Z,34.80
2022-12-09T13:07:35.309Z,35.00
2022-12-09T13:10:01.769Z,34.70
2022-12-09T13:12:29.383Z,34.70
2022-12-09T13:14:55.843Z,34.80
2022-12-09T13:17:22.291Z,34.10
2022-12-09T13:19:48.795Z,34.70
2022-12-09T13:22:15.263Z,34.30
2022-12-09T13:24:41.734Z,34.80
2022-12-09T13:27:08.220Z,34.80
2022-12-09T13:29:34.662Z,34.70
2022-12-09T13:32:01.114Z,34.30
2022-12-09T13:34:27.557Z,34.20
2022-12-09T13:36:54.011Z,34.00
2022-12-09T13:39:20.481Z,34.10
2022-12-09T13:41:46.957Z,34.80
2022-12-09T13:44:13.451Z,34.80
2022-12-09T13:46:40.018Z,34.90
2022-12-09T13:49:06.586Z,34.90
2022-12-09T13:51:33.135Z,34.90
2022-12-09T13:53:59.651Z,34.40
2022-12-09T13:56:26.130Z,34.90
2022-12-09T13:58:52.647Z,34.90
2022-12-09T14:01:19.078Z,34.90
2022-12-09T14:03:45.632Z,35.00
2022-12-09T14:06:12.082Z,35.00
2022-12-09T14:08:38.576Z,35.10
2022-12-09T14:11:05.030Z,34.90
2022-12-09T14:13:31.459Z,34.40
2022-12-09T14:15:57.939Z,34.90
2022-12-09T14:18:24.383Z,35.00
2022-12-09T14:20:50.873Z,35.00
2022-12-09T14:23:17.382Z,34.50
2022-12-09T14:25:49.716Z,35.00
2022-12-09T14:28:17.688Z,35.00
2022-12-09T14:30:44.455Z,35.00
2022-12-09T14:33:10.978Z,34.90
2022-12-09T14:35:37.431Z,34.90
2022-12-09T14:38:03.911Z,35.10
2022-12-09T14:40:30.399Z,35.10
2022-12-09T14:42:56.842Z,34.50
2022-12-09T14:45:23.280Z,35.30
2022-12-09T14:47:49.729Z,34.80
2022-12-09T14:50:16.168Z,34.70
2022-12-09T14:52:42.610Z,35.20
2022-12-09T14:55:09.379Z,34.60
2022-12-09T14:57:36.052Z,35.10
2022-12-09T15:00:02.545Z,35.00
2022-12-09T15:02:29.123Z,34.50
2022-12-09T15:04:55.883Z,35.00
2022-12-09T15:07:22.430Z,34.10
2022-12-09T15:09:48.886Z,34.90
2022-12-09T15:12:15.323Z,34.30
2022-12-09T15:14:41.813Z,35.00
2022-12-09T15:17:08.319Z,35.00
2022-12-09T15:19:59.908Z,35.00
2022-12-09T15:22:21.245Z,35.10
2022-12-09T15:24:50.678Z,35.30
2022-12-09T15:27:17.499Z,35.10
2022-12-09T15:29:44.001Z,34.80
2022-12-09T15:32:10.506Z,34.80
2022-12-09T15:34:36.966Z,35.40
2022-12-09T15:37:03.402Z,35.50
2022-12-09T15:39:29.868Z,35.60
2022-12-09T15:41:56.327Z,35.50
2022-12-09T15:44:22.769Z,34.80
2022-12-09T15:46:49.256Z,35.00
2022-12-09T15:49:15.724Z,35.40
2022-12-09T15:51:42.202Z,35.60
2022-12-09T15:54:08.705Z,35.10
2022-12-09T15:56:35.195Z,35.50
2022-12-09T15:59:01.745Z,35.60
2022-12-09T16:01:28.240Z,35.60
2022-12-09T16:03:54.852Z,35.60
2022-12-09T16:06:21.341Z,35.60
2022-12-09T16:08:47.824Z,35.30
2022-12-09T16:11:14.274Z,35.20
2022-12-09T16:13:42.345Z,35.60
2022-12-09T16:16:08.797Z,35.60
2022-12-09T16:18:35.269Z,35.20
2022-12-09T16:21:01.779Z,35.60
2022-12-09T16:23:28.555Z,35.60
2022-12-09T16:25:55.020Z,35.60
2022-12-09T16:28:21.541Z,34.90
2022-12-09T16:30:48.028Z,35.60
2022-12-09T16:33:14.482Z,35.00
2022-12-09T16:35:40.932Z,35.40
2022-12-09T16:38:07.376Z,35.40
2022-12-09T16:40:33.871Z,34.90
2022-12-09T16:43:00.389Z,35.30
2022-12-09T16:45:26.945Z,34.80
2022-12-09T16:47:53.483Z,35.40
2022-12-09T16:50:19.975Z,35.30
2022-12-09T16:52:46.470Z,34.80
2022-12-09T16:55:13.043Z,35.30
2022-12-09T16:57:39.618Z,35.20
2022-12-09T17:00:06.061Z,34.80
2022-12-09T17:02:32.532Z,34.70
2022-12-09T17:04:59.104Z,35.20
2022-12-09T17:07:25.583Z,34.70
2022-12-09T17:09:52.094Z,35.30
2022-12-09T17:12:18.622Z,35.00
2022-12-09T17:14:45.167Z,34.80
2022-12-09T17:17:11.651Z,35.50
2022-12-09T17:19:38.200Z,35.40
2022-12-09T17:22:07.623Z,35.00
2022-12-09T17:24:34.061Z,35.30
2022-12-09T17:27:00.512Z,35.40
2022-12-09T17:29:26.988Z,35.40
2022-12-09T17:31:53.474Z,35.40
2022-12-09T17:34:19.950Z,36.00
2022-12-09T17:36:46.453Z,34.80
2022-12-09T17:39:12.910Z,35.40
2022-12-09T17:41:39.397Z,35.00
2022-12-09T17:44:05.862Z,35.10
2022-12-09T17:46:32.362Z,35.10
2022-12-09T17:48:58.819Z,35.60
2022-12-09T17:51:25.262Z,35.80
2022-12-09T17:53:51.711Z,35.80
2022-12-09T17:56:18.137Z,35.80
2022-12-09T17:58:44.630Z,35.80
2022-12-09T18:01:11.123Z,35.30
2022-12-09T18:03:55.651Z,35.20
2022-12-09T18:06:23.141Z,35.80
2022-12-09T18:08:49.616Z,35.60
2022-12-09T18:11:16.148Z,35.80
2022-12-09T18:13:42.651Z,35.80
2022-12-09T18:16:09.145Z,35.80
2022-12-09T18:18:35.617Z,35.70
2022-12-09T18:21:02.114Z,35.10
2022-12-09T18:23:28.557Z,35.80
2022-12-09T18:25:55.015Z,35.70
2022-12-09T18:28:21.496Z,35.80
2022-12-09T18:30:48.026Z,35.80
2022-12-09T18:35:58.639Z,35.80
2022-12-09T18:38:25.083Z,35.90
2022-12-09T18:40:51.565Z,36.00
2022-12-09T18:43:18.047Z,35.90
2022-12-09T18:45:44.546Z,35.90
2022-12-09T18:48:11.021Z,35.60
2022-12-09T18:50:37.447Z,35.90
2022-12-09T18:53:03.923Z,36.30
2022-12-09T18:55:30.352Z,35.80
2022-12-09T18:57:56.847Z,36.40
2022-12-09T19:00:23.391Z,36.40
2022-12-09T19:02:49.922Z,35.60
2022-12-09T19:05:16.426Z,36.30
2022-12-09T19:07:42.944Z,36.30
2022-12-09T19:10:09.695Z,36.40
2022-12-09T19:12:46.757Z,35.90
2022-12-09T19:15:13.795Z,36.50
2022-12-09T19:17:40.293Z,36.40
2022-12-09T19:20:06.947Z,36.70
2022-12-09T19:22:33.574Z,36.50
2022-12-09T19:25:00.075Z,36.20
2022-12-09T19:27:26.521Z,36.40
2022-12-09T19:29:52.987Z,35.80
2022-12-09T19:32:51.319Z,35.70
2022-12-09T19:35:05.927Z,36.40
2022-12-09T19:37:32.518Z,36.50
2022-12-09T19:39:58.956Z,36.30
2022-12-09T19:42:25.412Z,35.80
2022-12-09T19:45:01.549Z,36.20
2022-12-09T19:47:29.051Z,36.10
2022-12-09T19:49:55.492Z,36.10
2022-12-09T19:52:21.922Z,35.40
2022-12-09T19:54:48.369Z,35.90
2022-12-09T19:57:14.811Z,36.00
2022-12-09T19:59:41.282Z,35.90
2022-12-09T20:02:07.834Z,35.30
2022-12-09T20:04:50.787Z,35.90
2022-12-09T20:07:17.758Z,35.80
2022-12-09T20:09:44.195Z,35.50
2022-12-09T20:12:10.673Z,35.50
2022-12-09T20:14:37.166Z,35.40
2022-12-09T20:17:03.594Z,35.80
2022-12-09T20:19:30.078Z,35.50
2022-12-09T20:21:56.539Z,35.90
2022-12-09T20:24:23.003Z,35.80
2022-12-09T20:26:49.510Z,35.90
2022-12-09T20:29:16.019Z,35.90
2022-12-09T20:31:42.576Z,35.90
2022-12-09T20:34:09.093Z,35.60
2022-12-09T20:36:35.590Z,35.10
2022-12-09T20:39:02.035Z,36.20
2022-12-09T20:41:28.500Z,35.60
2022-12-09T20:43:54.996Z,35.70
2022-12-09T20:46:21.468Z,34.90
2022-12-09T20:48:48.014Z,35.90
2022-12-09T20:51:14.517Z,36.00
2022-12-09T20:53:40.999Z,35.60
2022-12-09T20:56:07.444Z,36.10
2022-12-09T20:58:33.953Z,36.20
2022-12-09T21:01:00.437Z,35.80
2022-12-09T21:03:26.957Z,36.10
2022-12-09T21:05:53.457Z,35.10
2022-12-09T21:08:19.964Z,36.20
2022-12-09T21:10:46.422Z,35.80
2022-12-09T21:13:12.857Z,35.60
2022-12-09T21:15:39.322Z,36.30
2022-12-09T21:18:05.791Z,36.20
2022-12-09T21:20:32.248Z,36.20
2022-12-09T21:23:25.227Z,35.80
2022-12-09T21:25:45.167Z,36.20
2022-12-09T21:28:11.647Z,36.20
2022-12-09T21:30:38.082Z,36.30
2022-12-09T21:33:04.569Z,36.10
2022-12-09T21:35:31.010Z,36.40
2022-12-09T21:37:57.443Z,36.00
2022-12-09T21:40:23.919Z,36.40
2022-12-09T21:42:50.417Z,35.90
2022-12-09T21:45:16.854Z,36.60
2022-12-09T21:47:43.308Z,36.50
2022-12-09T21:50:09.994Z,36.40
2022-12-09T21:52:36.648Z,36.90
2022-12-09T21:55:03.165Z,36.30
2022-12-09T21:57:29.618Z,36.00
2022-12-09T21:59:56.057Z,36.50
2022-12-09T22:02:22.606Z,35.80
2022-12-09T22:04:49.093Z,36.30
2022-12-09T22:07:15.574Z,36.30
2022-12-09T22:09:42.069Z,36.30
2022-12-09T22:12:08.560Z,36.70
2022-12-09T22:14:34.996Z,36.30
2022-12-09T22:17:01.482Z,36.50
2022-12-09T22:19:27.983Z,36.40
2022-12-09T22:21:54.443Z,37.10
2022-12-09T22:24:20.931Z,36.70
2022-12-09T22:26:47.435Z,37.20
2022-12-09T22:29:13.903Z,37.30
2022-12-09T22:34:07.419Z,36.70
2022-12-09T22:36:33.911Z,37.20
2022-12-09T22:39:00.381Z,37.20
2022-12-09T22:41:26.860Z,37.00
2022-12-09T22:43:53.381Z,36.40
2022-12-09T22:46:19.883Z,37.00
2022-12-09T22:48:46.399Z,37.00
2022-12-09T22:51:12.860Z,37.40
2022-12-09T22:53:39.392Z,37.70
2022-12-09T22:56:05.830Z,37.90
2022-12-09T22:58:32.261Z,37.50
2022-12-09T23:00:58.727Z,38.00
2022-12-09T23:03:25.215Z,37.90
2022-12-09T23:05:51.795Z,37.60
2022-12-09T23:08:18.303Z,37.40
2022-12-09T23:10:44.835Z,37.90
2022-12-09T23:13:11.302Z,38.50
2022-12-09T23:15:37.843Z,38.40
2022-12-09T23:18:04.355Z,39.00
2022-12-09T23:20:30.823Z,38.90
2022-12-09T23:22:57.255Z,38.90
2022-12-09T23:25:23.694Z,38.80
2022-12-09T23:27:50.137Z,38.90
2022-12-09T23:30:16.600Z,38.80
2022-12-09T23:32:43.102Z,38.40
2022-12-09T23:35:09.539Z,38.80
2022-12-09T23:37:35.986Z,38.90
2022-12-09T23:40:02.421Z,38.30
2022-12-09T23:42:28.878Z,38.30
2022-12-09T23:44:55.318Z,38.80
2022-12-09T23:47:21.782Z,38.20
2022-12-09T23:49:48.264Z,38.80
2022-12-09T23:52:14.771Z,38.30
2022-12-09T23:54:41.206Z,38.90
2022-12-09T23:57:07.648Z,38.50
2022-12-09T23:59:34.122Z,38.80
